Terminal Aerodrome Forecast
Issued by NWS

Home | Current Version | Previous Version | Text Only | Print | Product List | Glossary On
Versions: 1 2 3 4 5 6 7 8 9 10 11 12 13 14
000
FTUS42 TJSJ 182300 CCA
TAFKPK
TAF COR
TKPK 182344Z 1900/1924 10008KT P6SM VCTS SCT022CB BKN035
      TEMPO 1900/1903 5SM TSRA BR BKN018CB
     FM191300 09012KT P6SM VCSH SCT025 SCT070
     FM192300 07008KT P6SM FEW025 SCT070
      AMD NOT SKED 1902/1911=

USA.gov is the U.S. government's official web portal to all federal, state and local government web resources and services.